Central Wisconsin Airport
KCWA : now visible

Airfield :











YOU CAN JOIN US ON...

 
LOGIN :

Register | Disclaimer

   EN    FR    IT 

 









Legend :    VFR   Marginal VFR   IFR   Intensive IFR   Very Intensive IFR
Visi :
Ceiling :
>= 8 km
>= 3000ft
5 to 8 km
1000 to 3000 ft
1500m to 5 km
500 to 1000 ft
800 to 1500m
200 to 500 ft
< 800m
< 200 ft
Symbols :   Thunderstorms  Fog  Heavy snow  Heavy precipitations  Wind > 20 kt






- Airport Elevation : 1277 ft


KCWA - Central Wisconsin

CURRENT METAR :
  • 181115Z AUTO 10006KT 1 3/4SM -SN SCT008 BKN014 OVC025 M03/M05 A2973 RMK AO2

EXPIRED METARs :
  • 181055Z AUTO 10006KT 1 1/4SM -SN SCT008 OVC014 M03/M05 A2975 RMK AO2
  • 181035Z AUTO 11006KT 1 3/4SM -SN OVC012 M03/M05 A2977 RMK AO2
  • 181015Z AUTO 10007KT 2 1/2SM -SN SCT010 OVC014 M03/M05 A2978 RMK AO2
  • 180955Z AUTO 10007KT 1 3/4SM -SN SCT008 BKN012 OVC019 M03/M05 A2980 RMK AO2
  • 180935Z AUTO 11007KT 2SM -SN BKN009 OVC016 M03/M05 A2983 RMK AO2
  • 180915Z AUTO 11006KT 2 1/2SM -SN BKN009 BKN016 OVC021 M03/M05 A2985 RMK AO2
  • 180855Z AUTO 10010KT 1 3/4SM -SN OVC009 M03/M05 A2986 RMK AO2
  • 180835Z AUTO 10009G17KT 2 1/2SM -SN OVC009 M03/M05 A2988 RMK AO2

TAF KCWA
Valid from the 18 at 11:00 until the 19 at 06:00 UTC


181033Z 1811/1906 11009G14KT 3SM -SN BR SCT009 OVC015
FM181200 16006KT 1SM -SN BR OVC005
FM181800 29011G23KT 2SM -SHSN BLSN OVC007
FM182000 28017G29KT 4SM -SHSN BLSN OVC013
FM190100 29017G29KT P6SM -SHSN OVC021 WS020/31045KT AMD LTD TO CLD VIS AND WIND TIL 181200



MET'MAP, your aeronautical weather chart ! - Copyright ORBIFLY December 2007 - Disclaimer

ORBIFLY MET'MAP TEAM :

Programming & Development : Alexandra Zaïnal
Concept & original design : Baudouin d'Aumeries
Assistance for programming : Marc-Olivier Méhu
Technical & hardware support : Manuel Goepfert

Contact : metmap@orbifly.com




SOURCES & CREDITS :

   NOAA       Earth
Advisory